Time;durP1;ratioP1;P1;durP2;ratioP2;P2;SDS_P1;SDS_P2;PMS_P1;PMS_P2;Temp;Humidity;BMP_temperature;BMP_pressure;BME280_temperature;BME280_humidity;BME280_pressure;Samples;Min_cycle;Max_cycle;Signal;HPM_P1;HPM_P2
2023/01/21 00:00:04;;;;;;;27.67;14.13;;;;;;;;;;5013260;28;20054;-51
2023/01/21 00:02:31;;;;;;;28.00;14.23;;;;;;;;;;5013723;28;20046;-53
2023/01/21 00:04:58;;;;;;;25.95;13.15;;;;;;;;;;5013364;28;20053;-51
2023/01/21 00:07:25;;;;;;;28.42;13.90;;;;;;;;;;5013442;28;20054;-53
2023/01/21 00:09:52;;;;;;;27.95;14.07;;;;;;;;;;5013087;28;20050;-54
2023/01/21 00:12:18;;;;;;;27.88;15.25;;;;;;;;;;5013265;28;20058;-55
2023/01/21 00:14:45;;;;;;;26.25;13.00;;;;;;;;;;5013458;28;20057;-56
2023/01/21 00:17:13;;;;;;;30.85;14.25;;;;;;;;;;5013126;28;20046;-53
2023/01/21 00:19:41;;;;;;;29.55;14.32;;;;;;;;;;5013264;28;20053;-51
2023/01/21 00:22:08;;;;;;;32.97;14.95;;;;;;;;;;5013389;28;20506;-52
2023/01/21 00:24:34;;;;;;;27.25;15.00;;;;;;;;;;5013344;28;20108;-50
2023/01/21 00:27:01;;;;;;;28.15;14.15;;;;;;;;;;5013284;28;20116;-52
2023/01/21 00:29:28;;;;;;;26.98;15.05;;;;;;;;;;5013272;28;20069;-53
2023/01/21 00:31:55;;;;;;;30.77;13.93;;;;;;;;;;5013102;28;20050;-48
2023/01/21 00:34:23;;;;;;;27.48;14.40;;;;;;;;;;5013209;28;20050;-52
2023/01/21 00:36:50;;;;;;;32.45;15.45;;;;;;;;;;5012403;28;20057;-50
2023/01/21 00:39:17;;;;;;;29.58;15.30;;;;;;;;;;5012972;28;20050;-55
2023/01/21 00:41:44;;;;;;;29.45;15.85;;;;;;;;;;5012793;28;20046;-51
2023/01/21 00:44:11;;;;;;;27.65;15.07;;;;;;;;;;5013122;28;20426;-53
2023/01/21 00:46:37;;;;;;;32.80;15.10;;;;;;;;;;5013290;28;20056;-51
2023/01/21 00:49:05;;;;;;;30.88;14.27;;;;;;;;;;5012956;28;20092;-55
2023/01/21 00:51:33;;;;;;;30.33;14.30;;;;;;;;;;5013037;28;20054;-50
2023/01/21 00:54:00;;;;;;;31.90;15.38;;;;;;;;;;5012845;28;20065;-51
2023/01/21 00:56:28;;;;;;;30.38;15.75;;;;;;;;;;5013209;28;20049;-55
2023/01/21 00:58:56;;;;;;;27.73;15.18;;;;;;;;;;5013264;28;20053;-52
2023/01/21 01:01:25;;;;;;;30.40;15.05;;;;;;;;;;5012880;28;20442;-55
2023/01/21 01:03:52;;;;;;;28.63;13.82;;;;;;;;;;5012770;28;20145;-53
2023/01/21 01:06:21;;;;;;;25.33;13.77;;;;;;;;;;5012419;28;20065;-51
2023/01/21 01:08:49;;;;;;;29.88;15.50;;;;;;;;;;5012609;28;20057;-53
2023/01/21 01:11:20;;;;;;;28.23;14.85;;;;;;;;;;5012670;28;20120;-50
2023/01/21 01:13:47;;;;;;;34.25;15.55;;;;;;;;;;5012765;28;20061;-52
2023/01/21 01:16:15;;;;;;;26.90;14.13;;;;;;;;;;5012259;28;20105;-54
2023/01/21 01:18:43;;;;;;;32.20;14.48;;;;;;;;;;5012507;28;20458;-55
2023/01/21 01:21:12;;;;;;;28.63;15.43;;;;;;;;;;5012232;28;20414;-53
2023/01/21 01:23:39;;;;;;;28.58;13.90;;;;;;;;;;5012554;28;20050;-55
2023/01/21 01:26:11;;;;;;;33.50;14.95;;;;;;;;;;5012471;28;20053;-55
2023/01/21 01:28:38;;;;;;;31.20;15.32;;;;;;;;;;5012365;28;20050;-53
2023/01/21 01:31:07;;;;;;;30.27;15.32;;;;;;;;;;5012453;28;20128;-50
2023/01/21 01:33:34;;;;;;;33.00;16.27;;;;;;;;;;5012492;28;20411;-54
2023/01/21 01:36:02;;;;;;;29.52;15.15;;;;;;;;;;5012366;28;20050;-54
2023/01/21 01:38:29;;;;;;;30.15;13.50;;;;;;;;;;5012101;28;20049;-55
2023/01/21 01:40:56;;;;;;;26.38;13.75;;;;;;;;;;5012845;28;20058;-56
2023/01/21 01:43:26;;;;;;;29.20;14.40;;;;;;;;;;5012126;28;20108;-54
2023/01/21 01:45:53;;;;;;;29.50;13.77;;;;;;;;;;5012289;28;20049;-55
2023/01/21 01:48:26;;;;;;;28.88;15.38;;;;;;;;;;5013424;28;20058;-52
2023/01/21 01:50:54;;;;;;;33.67;15.88;;;;;;;;;;5016029;28;20082;-55
2023/01/21 01:53:21;;;;;;;30.13;15.13;;;;;;;;;;5016082;28;20054;-52
2023/01/21 01:55:49;;;;;;;29.15;14.13;;;;;;;;;;5015980;28;20054;-52
2023/01/21 01:58:19;;;;;;;27.25;13.95;;;;;;;;;;5015958;28;20057;-52
2023/01/21 02:00:47;;;;;;;31.13;14.45;;;;;;;;;;5015743;28;20412;-55
2023/01/21 02:06:00;;;;;;;30.05;14.52;;;;;;;;;;5015838;28;20620;-55
2023/01/21 02:08:31;;;;;;;32.40;15.77;;;;;;;;;;5015697;28;20446;-55
2023/01/21 02:10:59;;;;;;;31.73;16.20;;;;;;;;;;5015912;28;20046;-56
2023/01/21 02:13:29;;;;;;;31.70;15.68;;;;;;;;;;5015631;28;20065;-51
2023/01/21 02:16:09;;;;;;;29.40;15.23;;;;;;;;;;5031804;22;20692;-75
2023/01/21 02:18:46;;;;;;;28.73;13.35;;;;;;;;;;5014329;28;20421;-74
2023/01/21 02:21:46;;;;;;;28.08;14.40;;;;;;;;;;5014968;28;20077;-74
2023/01/21 02:24:57;;;;;;;26.42;14.13;;;;;;;;;;4974821;28;20393;-75
2023/01/21 02:27:49;;;;;;;32.35;14.02;;;;;;;;;;4995741;28;20105;-75
2023/01/21 02:30:36;;;;;;;29.70;14.48;;;;;;;;;;4985003;28;20104;-75
2023/01/21 02:33:32;;;;;;;30.80;14.93;;;;;;;;;;4994909;28;20054;-75
2023/01/21 02:36:10;;;;;;;28.05;14.27;;;;;;;;;;4995517;28;20191;-74
2023/01/21 02:38:44;;;;;;;29.65;14.82;;;;;;;;;;4995133;28;20125;-74
2023/01/21 02:41:24;;;;;;;27.65;13.80;;;;;;;;;;4995525;28;20054;-74
2023/01/21 02:43:57;;;;;;;29.13;14.20;;;;;;;;;;4994903;28;20137;-75
2023/01/21 02:46:45;;;;;;;29.33;14.63;;;;;;;;;;4994054;28;20156;-76
2023/01/21 02:49:21;;;;;;;32.40;14.93;;;;;;;;;;4982894;28;20042;-76
2023/01/21 02:51:48;;;;;;;29.58;14.32;;;;;;;;;;4994667;28;20129;-75
2023/01/21 02:54:16;;;;;;;34.45;15.35;;;;;;;;;;4994814;28;20054;-74
2023/01/21 02:56:44;;;;;;;29.63;14.13;;;;;;;;;;4994132;28;20580;-75
2023/01/21 02:59:12;;;;;;;27.55;14.15;;;;;;;;;;4994278;28;20137;-75
2023/01/21 03:01:52;;;;;;;35.10;16.17;;;;;;;;;;4994403;28;20069;-75
2023/01/21 03:04:43;;;;;;;31.27;14.75;;;;;;;;;;4994491;28;20497;-75
2023/01/21 03:07:16;;;;;;;27.52;15.15;;;;;;;;;;4994430;28;20134;-75
2023/01/21 03:09:42;;;;;;;29.42;14.25;;;;;;;;;;4995134;28;20050;-75
2023/01/21 03:12:23;;;;;;;30.70;14.40;;;;;;;;;;4994717;28;20074;-74
2023/01/21 03:17:50;;;;;;;30.77;14.00;;;;;;;;;;4995025;28;20100;-74
2023/01/21 03:20:23;;;;;;;29.95;13.88;;;;;;;;;;4995170;28;20074;-74
2023/01/21 03:22:54;;;;;;;28.48;15.18;;;;;;;;;;4993417;28;20500;-75
2023/01/21 03:25:22;;;;;;;;;;;;;;;;;;4978807;28;20047;-74
2023/01/21 03:27:50;;;;;;;26.60;13.95;;;;;;;;;;4975694;28;19988;-74
2023/01/21 03:30:20;;;;;;;34.33;15.70;;;;;;;;;;4994119;28;20105;-74
2023/01/21 03:32:50;;;;;;;29.10;13.80;;;;;;;;;;4994177;28;20042;-76
2023/01/21 03:35:23;;;;;;;29.05;13.88;;;;;;;;;;4991739;28;20046;-76
2023/01/21 03:37:55;;;;;;;27.83;13.18;;;;;;;;;;4993900;28;20050;-76
2023/01/21 03:40:25;;;;;;;25.00;13.55;;;;;;;;;;4993652;28;20133;-74
2023/01/21 03:42:55;;;;;;;30.65;14.75;;;;;;;;;;4993804;28;20054;-76
2023/01/21 03:45:33;;;;;;;32.25;14.80;;;;;;;;;;4994412;28;20046;-74
2023/01/21 03:48:08;;;;;;;33.00;16.17;;;;;;;;;;4994297;28;20386;-74
2023/01/21 03:50:40;;;;;;;28.42;14.60;;;;;;;;;;4992561;28;20074;-75
2023/01/21 03:53:07;;;;;;;30.42;14.50;;;;;;;;;;4992894;28;20412;-76
2023/01/21 03:55:35;;;;;;;30.90;15.13;;;;;;;;;;4993638;28;20122;-73
2023/01/21 03:58:01;;;;;;;29.00;14.75;;;;;;;;;;4993195;28;20057;-74
2023/01/21 04:00:28;;;;;;;31.23;15.48;;;;;;;;;;4993528;28;20073;-75
2023/01/21 04:02:55;;;;;;;33.22;15.43;;;;;;;;;;4986376;28;20065;-75
2023/01/21 04:05:21;;;;;;;27.50;14.77;;;;;;;;;;4984633;28;20130;-74
2023/01/21 04:07:49;;;;;;;29.33;14.45;;;;;;;;;;4993322;28;20133;-74
2023/01/21 04:10:17;;;;;;;32.20;14.60;;;;;;;;;;4993349;28;20559;-75
2023/01/21 04:12:43;;;;;;;34.35;14.82;;;;;;;;;;4978374;28;20050;-74
2023/01/21 04:15:11;;;;;;;28.48;14.30;;;;;;;;;;4993041;28;20046;-75
2023/01/21 04:17:38;;;;;;;29.27;14.52;;;;;;;;;;4993034;28;20133;-73
2023/01/21 04:20:06;;;;;;;32.22;14.18;;;;;;;;;;4993094;28;20477;-73
2023/01/21 04:22:33;;;;;;;32.25;14.52;;;;;;;;;;4992881;28;20529;-73
2023/01/21 04:25:01;;;;;;;29.23;14.82;;;;;;;;;;4993727;28;20509;-76
2023/01/21 04:27:27;;;;;;;27.70;14.80;;;;;;;;;;4992477;28;20050;-76
2023/01/21 04:29:54;;;;;;;26.98;13.73;;;;;;;;;;4993407;28;20046;-76
2023/01/21 04:32:21;;;;;;;24.40;13.30;;;;;;;;;;4992471;28;20129;-75
2023/01/21 04:34:47;;;;;;;29.10;13.13;;;;;;;;;;4992367;28;20740;-75
2023/01/21 04:37:14;;;;;;;31.17;15.18;;;;;;;;;;4992147;28;20085;-74
2023/01/21 04:39:41;;;;;;;32.03;14.68;;;;;;;;;;4992675;28;20085;-74
2023/01/21 04:42:09;;;;;;;32.25;14.63;;;;;;;;;;4991908;28;20043;-73
2023/01/21 04:44:35;;;;;;;29.60;14.52;;;;;;;;;;4992938;28;20137;-74
2023/01/21 04:47:02;;;;;;;27.95;13.75;;;;;;;;;;4992600;28;20054;-75
2023/01/21 04:49:28;;;;;;;27.90;13.80;;;;;;;;;;4992848;28;20077;-75
2023/01/21 04:51:55;;;;;;;32.13;14.55;;;;;;;;;;4992636;28;20082;-74
2023/01/21 04:54:22;;;;;;;32.92;15.27;;;;;;;;;;4992856;28;20173;-75
2023/01/21 04:56:48;;;;;;;32.72;14.65;;;;;;;;;;4992659;28;20073;-74
2023/01/21 04:59:17;;;;;;;33.03;15.43;;;;;;;;;;4992959;28;20089;-75
2023/01/21 05:01:43;;;;;;;30.65;13.73;;;;;;;;;;4992575;28;20043;-74
2023/01/21 05:04:10;;;;;;;32.67;14.88;;;;;;;;;;4992826;28;20066;-75
2023/01/21 05:06:37;;;;;;;30.45;13.85;;;;;;;;;;4992330;28;20097;-76
2023/01/21 05:09:03;;;;;;;37.63;16.20;;;;;;;;;;4992226;28;20134;-75
2023/01/21 05:11:30;;;;;;;35.78;16.13;;;;;;;;;;4992484;28;20429;-74
2023/01/21 05:13:57;;;;;;;30.23;14.48;;;;;;;;;;4992257;28;20488;-73
2023/01/21 05:16:25;;;;;;;29.23;13.93;;;;;;;;;;4992160;28;20133;-75
2023/01/21 05:18:51;;;;;;;30.90;14.77;;;;;;;;;;4992526;28;20130;-76
2023/01/21 05:21:18;;;;;;;33.15;15.02;;;;;;;;;;4991967;28;20047;-74
2023/01/21 05:23:45;;;;;;;32.83;15.27;;;;;;;;;;4994850;28;20089;-74
2023/01/21 05:26:11;;;;;;;33.08;16.40;;;;;;;;;;4997064;28;20090;-76
2023/01/21 05:28:38;;;;;;;34.75;15.25;;;;;;;;;;4997031;28;20125;-75
2023/01/21 05:31:05;;;;;;;32.20;14.52;;;;;;;;;;5002516;28;20086;-74
2023/01/21 05:33:34;;;;;;;33.53;15.75;;;;;;;;;;5002187;28;20046;-74
2023/01/21 05:36:03;;;;;;;29.65;15.02;;;;;;;;;;4996198;28;20054;-75
2023/01/21 05:38:30;;;;;;;31.30;16.60;;;;;;;;;;4996349;28;20137;-76
2023/01/21 05:40:58;;;;;;;33.38;15.35;;;;;;;;;;4996671;28;20046;-75
2023/01/21 05:43:24;;;;;;;31.67;16.20;;;;;;;;;;4994473;28;20046;-75
2023/01/21 05:45:51;;;;;;;38.03;16.70;;;;;;;;;;4976473;28;20484;-75
2023/01/21 05:48:18;;;;;;;33.30;15.32;;;;;;;;;;4981174;28;20048;-74
2023/01/21 05:50:46;;;;;;;30.38;14.27;;;;;;;;;;4995916;28;20084;-79
2023/01/21 05:53:12;;;;;;;30.83;13.88;;;;;;;;;;4979655;28;20042;-75
2023/01/21 05:55:39;;;;;;;34.10;16.92;;;;;;;;;;4995729;28;20050;-75
2023/01/21 05:58:06;;;;;;;33.65;15.52;;;;;;;;;;4995849;28;20070;-74
2023/01/21 06:00:33;;;;;;;33.88;15.60;;;;;;;;;;4995613;28;20121;-74
2023/01/21 06:03:00;;;;;;;32.08;15.45;;;;;;;;;;4995761;28;20077;-74
2023/01/21 06:05:27;;;;;;;32.28;15.13;;;;;;;;;;4989130;28;20125;-76
2023/01/21 06:07:55;;;;;;;28.10;14.27;;;;;;;;;;4996190;28;20050;-74
2023/01/21 06:10:22;;;;;;;32.65;14.15;;;;;;;;;;4999112;28;20069;-75
2023/01/21 06:12:50;;;;;;;32.45;15.57;;;;;;;;;;4999556;28;20133;-75
2023/01/21 06:15:17;;;;;;;30.10;13.55;;;;;;;;;;4997552;28;20042;-74
2023/01/21 06:17:43;;;;;;;29.95;14.50;;;;;;;;;;4995079;28;20497;-76
2023/01/21 06:20:11;;;;;;;30.33;13.65;;;;;;;;;;4995412;28;20054;-76
2023/01/21 06:22:38;;;;;;;28.35;13.88;;;;;;;;;;4995138;28;20058;-74
2023/01/21 06:25:06;;;;;;;27.13;13.93;;;;;;;;;;4995038;28;20052;-74
2023/01/21 06:27:36;;;;;;;31.77;13.98;;;;;;;;;;4995155;28;20519;-75
2023/01/21 06:30:02;;;;;;;30.33;14.15;;;;;;;;;;4994762;28;20446;-75
2023/01/21 06:32:29;;;;;;;28.33;13.50;;;;;;;;;;4995102;28;20076;-75
2023/01/21 06:34:56;;;;;;;32.88;13.88;;;;;;;;;;4993475;28;20642;-75
2023/01/21 06:37:22;;;;;;;30.10;14.38;;;;;;;;;;4995189;28;20054;-75
2023/01/21 06:39:49;;;;;;;31.67;14.50;;;;;;;;;;4994725;28;20042;-76
2023/01/21 06:42:17;;;;;;;28.77;13.00;;;;;;;;;;4994722;28;20088;-71
2023/01/21 06:44:44;;;;;;;27.90;12.70;;;;;;;;;;4989559;28;20094;-73
2023/01/21 06:47:11;;;;;;;28.35;14.35;;;;;;;;;;4985675;28;20104;-74
2023/01/21 06:49:38;;;;;;;30.90;13.63;;;;;;;;;;4984385;28;20074;-73
2023/01/21 06:52:05;;;;;;;28.75;13.38;;;;;;;;;;4992908;28;20061;-76
2023/01/21 06:54:32;;;;;;;30.40;13.05;;;;;;;;;;4994646;28;20061;-73
2023/01/21 06:56:59;;;;;;;27.27;12.65;;;;;;;;;;4994509;28;20133;-74
2023/01/21 06:59:27;;;;;;;30.27;12.63;;;;;;;;;;4994752;28;20113;-73
2023/01/21 07:01:53;;;;;;;32.70;13.90;;;;;;;;;;4994685;28;20490;-74
2023/01/21 07:04:21;;;;;;;27.27;13.20;;;;;;;;;;4994862;28;20085;-74
2023/01/21 07:06:48;;;;;;;30.30;13.60;;;;;;;;;;4975567;28;20055;-75
2023/01/21 07:09:15;;;;;;;27.35;13.55;;;;;;;;;;4989287;28;20109;-76
2023/01/21 07:11:42;;;;;;;31.83;14.75;;;;;;;;;;4994395;28;20524;-75
2023/01/21 07:14:09;;;;;;;29.00;13.48;;;;;;;;;;4994335;28;20053;-73
2023/01/21 07:16:37;;;;;;;31.17;14.45;;;;;;;;;;4994561;28;20049;-75
2023/01/21 07:19:04;;;;;;;35.75;14.52;;;;;;;;;;4994594;28;20050;-74
2023/01/21 07:21:30;;;;;;;25.00;12.02;;;;;;;;;;4994509;28;20137;-74
2023/01/21 07:23:57;;;;;;;30.52;12.32;;;;;;;;;;4994205;28;20100;-75
2023/01/21 07:26:24;;;;;;;30.95;14.50;;;;;;;;;;4993737;28;20407;-75
2023/01/21 07:28:50;;;;;;;29.08;12.38;;;;;;;;;;4994039;28;20137;-76
2023/01/21 07:31:17;;;;;;;31.13;14.65;;;;;;;;;;4994958;28;20045;-75
2023/01/21 07:33:45;;;;;;;34.65;14.70;;;;;;;;;;4993551;28;20050;-75
2023/01/21 07:36:12;;;;;;;30.73;14.98;;;;;;;;;;4977255;28;20779;-75
2023/01/21 07:38:38;;;;;;;30.13;13.15;;;;;;;;;;4994103;28;20086;-75
2023/01/21 07:41:05;;;;;;;35.15;15.38;;;;;;;;;;4993860;28;20054;-75
2023/01/21 07:43:32;;;;;;;30.30;15.13;;;;;;;;;;4974478;28;20103;-74
2023/01/21 07:45:59;;;;;;;31.60;14.38;;;;;;;;;;4975578;28;20507;-76
2023/01/21 07:48:26;;;;;;;28.67;14.20;;;;;;;;;;4993812;28;20058;-75
2023/01/21 07:50:56;;;;;;;31.73;14.35;;;;;;;;;;4994070;28;20046;-75
2023/01/21 07:53:23;;;;;;;33.15;14.77;;;;;;;;;;4990265;28;20121;-75
2023/01/21 07:55:50;;;;;;;30.33;14.00;;;;;;;;;;4993820;28;20137;-75
2023/01/21 07:58:16;;;;;;;29.85;14.15;;;;;;;;;;4993327;28;20110;-74
2023/01/21 08:00:43;;;;;;;34.30;16.08;;;;;;;;;;4993626;28;20130;-75
2023/01/21 08:03:10;;;;;;;29.05;15.10;;;;;;;;;;4992942;28;20134;-74
2023/01/21 08:05:46;;;;;;;31.40;14.68;;;;;;;;;;4991079;28;20456;-74
2023/01/21 08:08:14;;;;;;;33.70;14.52;;;;;;;;;;4995396;28;20105;-77
2023/01/21 08:10:41;;;;;;;34.30;15.20;;;;;;;;;;4999614;28;20100;-77
2023/01/21 08:13:08;;;;;;;33.28;16.25;;;;;;;;;;4999640;28;20077;-74
2023/01/21 08:15:38;;;;;;;29.95;14.45;;;;;;;;;;4995864;28;20046;-75
2023/01/21 08:18:05;;;;;;;31.58;15.13;;;;;;;;;;4995965;28;20050;-75
2023/01/21 08:20:32;;;;;;;32.90;15.40;;;;;;;;;;4992775;28;20085;-74
2023/01/21 08:23:00;;;;;;;31.98;15.65;;;;;;;;;;4993457;28;20085;-75
2023/01/21 08:25:28;;;;;;;32.95;15.10;;;;;;;;;;4993181;28;20046;-75
2023/01/21 08:27:54;;;;;;;37.60;15.52;;;;;;;;;;4993948;28;20054;-75
2023/01/21 08:30:21;;;;;;;35.40;15.20;;;;;;;;;;4992863;28;20497;-75
2023/01/21 08:32:48;;;;;;;32.45;15.27;;;;;;;;;;4993138;28;20137;-76
2023/01/21 08:35:15;;;;;;;35.40;16.38;;;;;;;;;;4993153;28;20110;-75
2023/01/21 08:37:42;;;;;;;25.73;13.88;;;;;;;;;;4993216;28;20149;-74
2023/01/21 08:40:09;;;;;;;34.45;15.43;;;;;;;;;;4993073;28;20116;-75
2023/01/21 08:42:37;;;;;;;30.15;14.80;;;;;;;;;;4992409;28;20054;-74
2023/01/21 08:45:05;;;;;;;32.53;15.18;;;;;;;;;;4992997;28;20082;-74
2023/01/21 08:47:32;;;;;;;34.00;15.65;;;;;;;;;;4992693;28;20145;-76
2023/01/21 08:49:59;;;;;;;32.20;14.85;;;;;;;;;;4992465;28;20498;-74
2023/01/21 08:52:25;;;;;;;33.33;16.65;;;;;;;;;;4992660;28;20125;-75
2023/01/21 08:54:52;;;;;;;33.35;15.05;;;;;;;;;;4992921;28;20042;-75
2023/01/21 08:57:18;;;;;;;35.80;16.10;;;;;;;;;;4992103;28;20054;-75
2023/01/21 08:59:47;;;;;;;35.25;16.55;;;;;;;;;;4992662;28;20101;-74
2023/01/21 09:02:13;;;;;;;34.05;15.45;;;;;;;;;;4992772;28;20090;-78
2023/01/21 09:04:40;;;;;;;36.25;17.17;;;;;;;;;;4993483;28;20057;-75
2023/01/21 09:07:06;;;;;;;33.58;15.73;;;;;;;;;;4993100;28;20043;-75
2023/01/21 09:09:33;;;;;;;30.63;15.63;;;;;;;;;;4992616;28;20082;-74
2023/01/21 09:12:00;;;;;;;32.63;15.73;;;;;;;;;;4993275;28;20046;-74
2023/01/21 09:14:27;;;;;;;32.95;15.27;;;;;;;;;;4992742;28;20073;-76
2023/01/21 09:16:55;;;;;;;33.92;16.52;;;;;;;;;;4993399;28;20050;-74
2023/01/21 09:19:22;;;;;;;32.05;14.82;;;;;;;;;;4993582;28;20136;-74
2023/01/21 09:21:51;;;;;;;34.15;15.70;;;;;;;;;;4994515;28;20042;-74
2023/01/21 09:24:17;;;;;;;34.30;16.15;;;;;;;;;;4994803;28;20050;-74
2023/01/21 09:26:44;;;;;;;28.63;14.57;;;;;;;;;;4994445;28;20088;-75
2023/01/21 09:29:14;;;;;;;34.88;16.85;;;;;;;;;;4994384;28;20057;-75
2023/01/21 09:31:40;;;;;;;36.97;16.30;;;;;;;;;;4992886;28;20073;-75
2023/01/21 09:34:10;;;;;;;32.85;14.82;;;;;;;;;;4992832;28;20503;-75
2023/01/21 09:36:38;;;;;;;32.28;16.08;;;;;;;;;;4992682;28;20084;-75
2023/01/21 09:39:06;;;;;;;38.03;17.48;;;;;;;;;;4992929;28;20100;-76
2023/01/21 09:41:36;;;;;;;30.88;14.68;;;;;;;;;;4992702;28;20129;-75
2023/01/21 09:44:16;;;;;;;31.35;14.98;;;;;;;;;;4992571;28;20042;-73
2023/01/21 09:46:49;;;;;;;32.70;16.02;;;;;;;;;;4992840;28;20089;-74
2023/01/21 09:49:22;;;;;;;33.83;15.23;;;;;;;;;;4992874;28;20053;-78
2023/01/21 09:51:58;;;;;;;33.40;15.43;;;;;;;;;;4997163;28;20104;-83
2023/01/21 09:54:30;;;;;;;31.15;15.48;;;;;;;;;;4992254;28;20085;-73
2023/01/21 09:57:37;;;;;;;32.50;15.38;;;;;;;;;;4992906;28;20614;-74
2023/01/21 10:00:19;;;;;;;31.58;13.70;;;;;;;;;;4992393;28;20052;-74
2023/01/21 10:02:55;;;;;;;36.42;16.35;;;;;;;;;;4992423;28;20142;-74
2023/01/21 10:06:04;;;;;;;35.47;14.85;;;;;;;;;;4992467;28;20077;-74
2023/01/21 10:08:40;;;;;;;27.50;13.70;;;;;;;;;;4894798;29;20051;-74
2023/01/21 10:11:23;;;;;;;32.33;15.07;;;;;;;;;;4978871;28;20081;-75
2023/01/21 10:14:04;;;;;;;31.50;13.65;;;;;;;;;;4996143;28;20137;-76
2023/01/21 10:16:38;;;;;;;31.88;14.27;;;;;;;;;;4997732;28;20050;-75
2023/01/21 10:19:07;;;;;;;25.30;13.20;;;;;;;;;;4996268;28;20046;-75
2023/01/21 10:21:41;;;;;;;33.25;13.68;;;;;;;;;;4996805;28;20046;-75
2023/01/21 10:24:15;;;;;;;30.17;13.57;;;;;;;;;;4995428;28;20094;-75
2023/01/21 10:26:45;;;;;;;33.10;15.50;;;;;;;;;;4975609;28;20051;-76
2023/01/21 10:29:17;;;;;;;29.50;14.90;;;;;;;;;;4977178;28;20078;-74
2023/01/21 10:31:49;;;;;;;30.27;13.80;;;;;;;;;;4994727;28;20073;-74
2023/01/21 10:34:18;;;;;;;33.00;12.35;;;;;;;;;;4996522;28;20076;-74
2023/01/21 10:36:53;;;;;;;30.48;13.65;;;;;;;;;;4995987;28;20137;-74
2023/01/21 10:39:31;;;;;;;27.65;14.35;;;;;;;;;;4996601;28;20157;-81
2023/01/21 10:42:11;;;;;;;32.03;13.07;;;;;;;;;;4978255;28;20109;-74
2023/01/21 10:44:45;;;;;;;32.10;14.18;;;;;;;;;;4978114;28;20129;-75
2023/01/21 10:47:20;;;;;;;26.33;11.48;;;;;;;;;;4995101;28;20144;-74
2023/01/21 10:49:57;;;;;;;31.73;13.23;;;;;;;;;;4995165;28;20145;-73
2023/01/21 10:52:34;;;;;;;27.60;12.73;;;;;;;;;;4995434;28;20088;-74
2023/01/21 10:55:15;;;;;;;30.33;12.98;;;;;;;;;;4995405;28;20050;-77
2023/01/21 10:57:55;;;;;;;32.90;15.10;;;;;;;;;;4996020;28;20053;-75
2023/01/21 11:00:25;;;;;;;32.03;13.25;;;;;;;;;;4975919;28;20445;-75
2023/01/21 11:02:55;;;;;;;28.90;14.25;;;;;;;;;;4993530;28;20056;-76
2023/01/21 11:05:24;;;;;;;32.53;14.38;;;;;;;;;;4994560;28;20493;-74
2023/01/21 11:07:56;;;;;;;25.10;12.45;;;;;;;;;;4994661;28;20088;-75
2023/01/21 11:10:25;;;;;;;30.15;13.90;;;;;;;;;;4994681;28;20083;-77
2023/01/21 11:12:53;;;;;;;27.77;13.43;;;;;;;;;;4994392;28;20078;-76
2023/01/21 11:15:21;;;;;;;25.60;12.63;;;;;;;;;;4994143;28;20137;-76
2023/01/21 11:17:52;;;;;;;30.52;13.15;;;;;;;;;;4994337;28;20537;-75
2023/01/21 11:20:21;;;;;;;;;;;;;;;;;;4994709;28;20112;-76
2023/01/21 11:22:49;;;;;;;28.05;13.18;;;;;;;;;;4995873;28;19922;-78
2023/01/21 11:25:35;;;;;;;24.13;12.48;;;;;;;;;;4994385;28;20133;-77
2023/01/21 11:28:02;;;;;;;25.30;12.20;;;;;;;;;;4998309;28;20050;-78
2023/01/21 11:30:32;;;;;;;26.88;12.10;;;;;;;;;;4998506;28;20050;-78
2023/01/21 11:33:14;;;;;;;26.52;13.30;;;;;;;;;;4996313;28;20053;-77
2023/01/21 11:35:41;;;;;;;28.20;11.88;;;;;;;;;;4991975;28;20113;-77
2023/01/21 11:38:22;;;;;;;30.10;12.43;;;;;;;;;;4999757;28;20133;-76
2023/01/21 11:41:00;;;;;;;;;;;;;;;;;;4988553;28;20101;-78
2023/01/21 11:43:35;;;;;;;24.38;11.27;;;;;;;;;;4995974;28;19925;-74
2023/01/21 11:46:23;;;;;;;24.60;11.63;;;;;;;;;;4994647;28;20054;-75
2023/01/21 11:48:49;;;;;;;25.67;11.35;;;;;;;;;;4994534;28;20517;-75
2023/01/21 11:51:16;;;;;;;21.55;11.13;;;;;;;;;;4994518;28;20046;-74
2023/01/21 11:53:45;;;;;;;22.60;10.48;;;;;;;;;;4993382;28;20440;-76
2023/01/21 11:56:15;;;;;;;24.92;11.82;;;;;;;;;;4994023;28;20042;-75
2023/01/21 11:58:42;;;;;;;25.53;11.03;;;;;;;;;;4993976;28;20050;-75
2023/01/21 12:01:20;;;;;;;22.48;11.35;;;;;;;;;;4993786;28;20457;-76
2023/01/21 12:03:51;;;;;;;28.13;11.00;;;;;;;;;;4997454;28;20084;-76
2023/01/21 12:06:20;;;;;;;21.55;9.95;;;;;;;;;;4993734;28;20050;-77
2023/01/21 12:08:50;;;;;;;26.70;11.52;;;;;;;;;;4994118;28;20077;-76
2023/01/21 12:11:22;;;;;;;22.67;9.43;;;;;;;;;;4997662;28;20042;-76
2023/01/21 12:13:56;;;;;;;24.17;11.10;;;;;;;;;;5013957;28;20092;-77
2023/01/21 12:16:34;;;;;;;25.33;10.75;;;;;;;;;;5001106;28;20046;-75
2023/01/21 12:19:25;;;;;;;23.27;10.50;;;;;;;;;;4993911;28;20046;-76
2023/01/21 12:22:07;;;;;;;23.67;10.65;;;;;;;;;;4992959;28;20137;-77
2023/01/21 12:24:45;;;;;;;22.85;10.45;;;;;;;;;;4993454;28;20054;-76
2023/01/21 12:27:23;;;;;;;20.80;9.57;;;;;;;;;;4993528;28;20050;-76
2023/01/21 12:30:01;;;;;;;23.35;10.57;;;;;;;;;;4993616;28;20082;-76
2023/01/21 12:32:33;;;;;;;22.08;10.93;;;;;;;;;;4992048;28;20123;-76
2023/01/21 12:35:03;;;;;;;27.17;11.57;;;;;;;;;;4993168;28;20077;-76
2023/01/21 12:37:34;;;;;;;22.40;11.02;;;;;;;;;;4992233;28;20050;-77
2023/01/21 12:40:09;;;;;;;24.25;11.20;;;;;;;;;;4993231;28;20569;-77
2023/01/21 12:42:42;;;;;;;20.02;10.38;;;;;;;;;;4993342;28;20117;-77
2023/01/21 12:45:14;;;;;;;22.88;9.35;;;;;;;;;;4993076;28;20411;-77
2023/01/21 12:47:48;;;;;;;23.33;10.20;;;;;;;;;;4992869;28;20046;-76
2023/01/21 12:50:23;;;;;;;24.88;10.18;;;;;;;;;;4993945;28;20089;-75
2023/01/21 12:53:00;;;;;;;22.88;9.90;;;;;;;;;;4995247;28;20093;-77
2023/01/21 12:55:36;;;;;;;20.08;9.73;;;;;;;;;;4994320;28;20078;-77
2023/01/21 12:58:09;;;;;;;23.75;10.05;;;;;;;;;;4993203;28;20421;-76
2023/01/21 13:00:39;;;;;;;21.60;10.20;;;;;;;;;;4993308;28;20042;-76
2023/01/21 13:03:20;;;;;;;22.02;11.20;;;;;;;;;;5009771;28;20136;-74
2023/01/21 13:05:54;;;;;;;22.03;9.30;;;;;;;;;;4996280;28;20058;-76
2023/01/21 13:08:40;;;;;;;23.08;9.38;;;;;;;;;;4993658;28;20280;-77
2023/01/21 13:11:17;;;;;;;24.20;10.88;;;;;;;;;;4993254;28;20116;-76
2023/01/21 13:13:53;;;;;;;25.35;10.70;;;;;;;;;;4993701;28;20050;-76
2023/01/21 13:16:21;;;;;;;19.98;10.20;;;;;;;;;;4992561;28;20046;-76
2023/01/21 13:18:53;;;;;;;23.13;11.07;;;;;;;;;;4993619;28;20133;-75
2023/01/21 13:21:30;;;;;;;22.50;10.77;;;;;;;;;;4992821;28;20048;-77
2023/01/21 13:24:04;;;;;;;20.02;9.57;;;;;;;;;;4993146;28;20074;-76
2023/01/21 13:26:35;;;;;;;22.35;9.82;;;;;;;;;;4994371;28;20129;-76
2023/01/21 13:29:09;;;;;;;18.83;9.75;;;;;;;;;;4994016;28;20085;-76
2023/01/21 13:31:44;;;;;;;21.48;10.35;;;;;;;;;;4993361;28;20386;-76
2023/01/21 13:34:25;;;;;;;25.17;11.07;;;;;;;;;;4992963;28;20494;-77
2023/01/21 13:37:06;;;;;;;23.50;10.57;;;;;;;;;;4992945;28;20129;-76
2023/01/21 13:39:43;;;;;;;21.42;9.35;;;;;;;;;;4992796;28;20055;-76
2023/01/21 13:42:25;;;;;;;21.92;9.65;;;;;;;;;;4992362;28;20074;-78
2023/01/21 13:45:08;;;;;;;21.38;10.43;;;;;;;;;;4994729;28;20052;-77
2023/01/21 13:47:53;;;;;;;20.88;9.63;;;;;;;;;;4996806;28;20050;-77
2023/01/21 13:50:26;;;;;;;19.67;9.30;;;;;;;;;;4996741;28;20054;-77
2023/01/21 13:53:13;;;;;;;22.13;10.20;;;;;;;;;;4996544;28;20086;-77
2023/01/21 13:55:50;;;;;;;20.77;9.18;;;;;;;;;;4996292;28;20502;-78
2023/01/21 13:58:28;;;;;;;21.63;10.35;;;;;;;;;;4996681;28;20085;-77
2023/01/21 14:00:59;;;;;;;25.70;11.60;;;;;;;;;;4996212;28;20519;-76
2023/01/21 14:03:32;;;;;;;21.13;10.10;;;;;;;;;;4996121;28;20073;-77
2023/01/21 14:06:06;;;;;;;24.38;10.18;;;;;;;;;;4996116;28;20081;-76
2023/01/21 14:08:42;;;;;;;20.70;9.90;;;;;;;;;;4996562;28;20129;-76
2023/01/21 14:11:12;;;;;;;22.05;10.50;;;;;;;;;;4996737;28;20105;-77
2023/01/21 14:14:04;;;;;;;24.65;10.73;;;;;;;;;;4996604;28;20468;-77
2023/01/21 14:16:59;;;;;;;23.88;10.88;;;;;;;;;;5014131;22;20534;-75
2023/01/21 14:20:02;;;;;;;19.88;10.50;;;;;;;;;;5008303;28;20126;-76
2023/01/21 14:22:49;;;;;;;23.80;10.13;;;;;;;;;;5006412;28;20646;-74
2023/01/21 14:25:27;;;;;;;21.55;10.27;;;;;;;;;;4995303;28;20046;-75
2023/01/21 14:28:06;;;;;;;21.50;9.90;;;;;;;;;;4981422;28;20137;-75
2023/01/21 14:30:41;;;;;;;22.92;10.52;;;;;;;;;;4995579;28;20217;-76
2023/01/21 14:33:14;;;;;;;23.10;10.27;;;;;;;;;;4987527;28;20130;-75
2023/01/21 14:35:47;;;;;;;22.13;10.05;;;;;;;;;;4975679;28;20051;-77
2023/01/21 14:38:25;;;;;;;23.15;10.57;;;;;;;;;;4983118;28;20528;-74
2023/01/21 14:41:04;;;;;;;21.92;10.55;;;;;;;;;;4995611;28;20069;-76
2023/01/21 14:43:49;;;;;;;28.35;10.68;;;;;;;;;;4985831;28;20130;-75
2023/01/21 14:46:31;;;;;;;24.08;10.20;;;;;;;;;;4975691;28;20501;-75